Time;durP1;ratioP1;P1;durP2;ratioP2;P2;SDS_P1;SDS_P2;PMS_P1;PMS_P2;Temp;Humidity;BMP_temperature;BMP_pressure;BME280_temperature;BME280_humidity;BME280_pressure;Samples;Min_cycle;Max_cycle;Signal;HPM_P1;HPM_P2
2023/05/24 00:43:29;;;;;;;;;;;;;;;;;;;;;
2023/05/24 01:54:12;;;;;;;;;;;;;;;;;;;;;
2023/05/24 04:49:01;;;;;;;;;;;;;;;;;;4885338;29;20457;-82
2023/05/24 05:09:13;;;;;;;;;;;;;;;;;;;;;
2023/05/24 05:12:11;;;;;;;14.52;4.13;;;;;;;;;;4966289;28;20054;-86
2023/05/24 05:22:33;;;;;;;22.20;4.78;;;;;;;;;;4907764;28;20121;-86
2023/05/24 05:25:34;;;;;;;;;;;;;;;;;;;;;
2023/05/24 05:28:40;;;;;;;19.02;4.32;;;;;;;;;;4939268;28;20081;-84
2023/05/24 05:35:57;;;;;;;;;;;;;;;;;;;;;
2023/05/24 05:52:09;;;;;;;15.75;4.40;;;;;;;;;;4947182;28;20182;-85
2023/05/24 06:01:48;;;;;;;19.00;4.85;;;;;;;;;;4923037;29;20034;-85
2023/05/24 06:05:00;;;;;;;15.88;4.07;;;;;;;;;;4901712;29;20685;-84
2023/05/24 06:21:25;;;;;;;13.98;4.07;;;;;;;;;;4829365;29;20291;-85
2023/05/24 06:31:25;;;;;;;12.73;3.83;;;;;;;;;;4848989;29;20044;-86
2023/05/24 06:34:53;;;;;;;17.05;4.15;;;;;;;;;;4857487;29;20470;-85
2023/05/24 06:37:23;;;;;;;12.90;3.70;;;;;;;;;;4893253;23;20869;-59
2023/05/24 06:39:49;;;;;;;18.58;3.75;;;;;;;;;;4936119;28;20043;-58
2023/05/24 06:42:15;;;;;;;15.98;4.00;;;;;;;;;;4949562;28;20138;-58
2023/05/24 06:44:41;;;;;;;14.02;4.10;;;12.60;99.90;;;;;;4918131;29;20047;-59
2023/05/24 06:47:08;;;;;;;16.08;3.92;;;;;;;;;;4936297;28;20053;-58
2023/05/24 06:49:33;;;;;;;15.32;3.85;;;12.60;99.90;;;;;;4935942;28;20865;-59
2023/05/24 06:52:00;;;;;;;16.42;4.60;;;;;;;;;;4939126;28;20039;-57
2023/05/24 06:54:26;;;;;;;12.63;3.90;;;;;;;;;;4939906;29;20054;-58
2023/05/24 06:56:51;;;;;;;15.60;3.75;;;12.60;99.90;;;;;;4922393;29;20051;-59
2023/05/24 06:59:17;;;;;;;13.35;3.70;;;;;;;;;;4938594;29;20150;-59
2023/05/24 07:01:43;;;;;;;11.00;2.97;;;12.60;99.90;;;;;;4938718;29;20097;-60
2023/05/24 07:04:09;;;;;;;11.57;3.25;;;;;;;;;;4939025;29;20058;-58
2023/05/24 07:06:36;;;;;;;11.32;3.08;;;;;;;;;;4922251;29;20413;-58
2023/05/24 07:09:03;;;;;;;13.60;3.55;;;;;;;;;;4921534;29;20047;-58
2023/05/24 07:11:29;;;;;;;10.73;3.25;;;;;;;;;;4921208;29;20133;-59
2023/05/24 07:13:56;;;;;;;16.55;4.82;;;;;;;;;;4921558;29;20130;-59
2023/05/24 07:16:22;;;;;;;9.32;3.35;;;;;;;;;;4921837;29;20110;-59
2023/05/24 07:18:48;;;;;;;10.00;3.40;;;13.00;1.00;;;;;;4921789;29;20047;-58
2023/05/24 07:21:13;;;;;;;11.90;3.33;;;13.20;1.00;;;;;;4938584;29;20535;-60
2023/05/24 07:23:39;;;;;;;11.93;3.30;;;;;;;;;;4938879;29;20043;-57
2023/05/24 07:26:05;;;;;;;13.02;4.00;;;13.20;1.00;;;;;;4915063;29;20047;-60
2023/05/24 07:28:31;;;;;;;10.73;3.38;;;13.20;1.00;;;;;;4939874;29;20070;-60
2023/05/24 07:30:57;;;;;;;11.80;4.22;;;13.40;99.90;;;;;;4921062;29;20468;-60
2023/05/24 07:33:22;;;;;;;14.15;3.35;;;13.40;99.90;;;;;;4937204;28;20090;-59
2023/05/24 07:35:50;;;;;;;10.50;3.58;;;13.50;99.90;;;;;;4938313;29;20043;-57
2023/05/24 07:38:19;;;;;;;11.27;3.33;;;;;;;;;;4938215;29;20158;-60
2023/05/24 07:40:45;;;;;;;14.23;4.05;;;;;;;;;;4938109;29;20542;-59
2023/05/24 07:43:11;;;;;;;14.70;3.78;;;13.70;99.90;;;;;;4938309;28;20457;-60
2023/05/24 07:45:37;;;;;;;9.68;4.20;;;14.00;99.90;;;;;;4938574;29;20114;-59
2023/05/24 07:48:02;;;;;;;16.90;3.88;;;13.80;99.90;;;;;;4938496;29;20394;-58
2023/05/24 07:50:28;;;;;;;12.85;3.60;;;14.10;99.90;;;;;;4937391;29;20055;-59
2023/05/24 07:52:56;;;;;;;12.60;3.53;;;;;;;;;;4937618;29;20162;-60
2023/05/24 07:55:21;;;;;;;12.13;3.55;;;14.30;99.90;;;;;;4938698;29;20093;-59
2023/05/24 07:57:47;;;;;;;15.60;4.13;;;;;;;;;;4921582;29;20074;-59
2023/05/24 08:00:15;;;;;;;10.30;2.85;;;;;;;;;;4936761;28;20548;-60
2023/05/24 08:02:41;;;;;;;14.63;3.10;;;;;;;;;;4938229;28;20360;-60
2023/05/24 08:05:09;;;;;;;13.10;3.28;;;;;;;;;;4937607;29;20043;-59
2023/05/24 08:07:37;;;;;;;12.55;2.97;;;;;;;;;;4918860;29;20272;-59
2023/05/24 08:10:03;;;;;;;12.50;3.10;;;;;;;;;;4932136;29;20055;-60
2023/05/24 08:12:29;;;;;;;15.43;4.03;;;;;;;;;;4936058;28;20166;-60
2023/05/24 08:14:55;;;;;;;14.77;3.45;;;;;;;;;;4936487;29;20043;-59
2023/05/24 08:17:21;;;;;;;13.95;3.20;;;14.70;99.90;;;;;;4936562;29;20051;-59
2023/05/24 08:19:47;;;;;;;8.13;2.50;;;14.50;99.90;;;;;;4935421;29;20070;-59
2023/05/24 08:22:13;;;;;;;14.50;3.63;;;;;;;;;;4935666;29;20075;-60
2023/05/24 08:24:39;;;;;;;12.52;3.30;;;14.80;99.90;;;;;;4936267;29;20051;-60
2023/05/24 08:27:06;;;;;;;11.10;3.33;;;14.70;99.90;;;;;;4936382;29;20113;-60
2023/05/24 08:29:32;;;;;;;10.57;2.90;;;14.70;99.90;;;;;;4918385;29;20339;-59
2023/05/24 08:31:58;;;;;;;18.98;3.05;;;;;;;;;;4936576;29;20075;-59
2023/05/24 08:34:24;;;;;;;12.05;3.95;;;14.70;99.90;;;;;;4918798;29;20054;-59
2023/05/24 08:36:50;;;;;;;12.02;4.03;;;14.90;99.90;;;;;;4936143;29;20095;-59
2023/05/24 08:39:15;;;;;;;10.75;3.45;;;14.70;99.90;;;;;;4935865;29;20791;-60
2023/05/24 08:41:41;;;;;;;10.95;3.47;;;15.10;99.90;;;;;;4918423;29;20358;-59
2023/05/24 08:44:08;;;;;;;11.45;2.97;;;;;;;;;;4935569;29;20520;-59
2023/05/24 08:46:34;;;;;;;14.45;3.15;;;14.90;99.90;;;;;;4936832;29;20082;-59
2023/05/24 08:49:04;;;;;;;13.00;4.25;;;;;;;;;;4918565;29;20123;-59
2023/05/24 08:51:30;;;;;;;10.40;2.85;;;14.90;99.90;;;;;;4917891;29;20113;-59
2023/05/24 08:54:00;;;;;;;10.50;3.28;;;;;;;;;;4918531;29;20043;-58
2023/05/24 08:56:27;;;;;;;12.63;3.13;;;14.90;99.90;;;;;;4919330;29;20050;-59
2023/05/24 08:58:54;;;;;;;12.32;2.83;;;;;;;;;;4935538;29;20085;-59
2023/05/24 09:01:20;;;;;;;13.23;3.63;;;;;;;;;;4917689;29;20050;-59
2023/05/24 09:03:46;;;;;;;11.30;3.33;;;15.10;99.90;;;;;;4934780;28;20047;-59
2023/05/24 09:06:15;;;;;;;12.70;3.35;;;;;;;;;;4935375;29;20098;-60
2023/05/24 09:08:42;;;;;;;14.18;3.53;;;15.20;99.90;;;;;;4935415;29;20054;-59
2023/05/24 09:11:08;;;;;;;14.73;4.07;;;14.80;99.90;;;;;;4933980;29;20098;-58
2023/05/24 09:13:34;;;;;;;11.52;3.65;;;;;;;;;;4934938;29;20569;-59
2023/05/24 09:16:01;;;;;;;10.38;3.00;;;15.10;99.90;;;;;;4935131;29;20050;-57
2023/05/24 09:18:27;;;;;;;13.40;3.47;;;14.90;99.90;;;;;;4935538;29;20050;-59
2023/05/24 09:20:53;;;;;;;12.52;3.70;;;14.90;99.90;;;;;;4934652;29;20498;-58
2023/05/24 09:23:18;;;;;;;11.32;3.58;;;14.80;99.90;;;;;;4917637;29;20054;-59
2023/05/24 09:25:45;;;;;;;12.95;3.65;;;;;;;;;;4935635;29;20035;-59
2023/05/24 09:28:16;;;;;;;9.85;2.70;;;15.20;99.90;;;;;;4935277;29;20047;-59
2023/05/24 09:30:56;;;;;;;10.55;2.80;;;;;;;;;;4917905;29;20146;-59
2023/05/24 09:33:22;;;;;;;10.23;3.00;;;15.40;99.90;;;;;;4928702;29;20153;-59
2023/05/24 09:35:48;;;;;;;10.98;3.72;;;15.60;99.90;;;;;;4935293;29;20370;-58
2023/05/24 09:38:18;;;;;;;9.38;2.72;;;15.70;99.90;;;;;;4927840;29;20495;-57
2023/05/24 09:40:45;;;;;;;14.75;3.63;;;15.30;99.90;;;;;;4934608;29;20051;-60
2023/05/24 09:43:11;;;;;;;11.18;3.50;;;;;;;;;;4934743;29;20047;-59
2023/05/24 09:45:48;;;;;;;9.90;3.13;;;;;;;;;;4918115;29;20442;-58
2023/05/24 09:48:18;;;;;;;9.02;3.10;;;15.90;99.90;;;;;;4930093;29;20051;-58
2023/05/24 09:51:03;;;;;;;11.50;3.72;;;16.40;99.90;;;;;;4933795;29;20039;-59
2023/05/24 09:53:29;;;;;;;7.20;2.53;;;16.00;99.90;;;;;;4918382;29;20306;-58
2023/05/24 09:55:55;;;;;;;11.65;2.80;;;15.70;99.90;;;;;;4918229;29;20414;-58
2023/05/24 09:58:21;;;;;;;11.00;2.97;;;15.70;99.90;;;;;;4935524;29;20165;-59
2023/05/24 10:00:47;;;;;;;11.23;3.65;;;16.60;99.90;;;;;;4935031;29;20050;-57
2023/05/24 10:03:13;;;;;;;11.60;3.28;;;16.30;99.90;;;;;;4935239;28;20466;-59
2023/05/24 10:05:45;;;;;;;10.15;3.00;;;16.60;99.90;;;;;;4935449;29;20051;-58
2023/05/24 10:08:13;;;;;;;10.25;3.15;;;;;;;;;;4917496;29;20057;-59
2023/05/24 10:10:40;;;;;;;10.65;3.40;;;15.90;99.90;;;;;;4917689;29;20059;-58
2023/05/24 10:13:06;;;;;;;16.00;3.80;;;15.50;99.90;;;;;;4935240;28;20094;-58
2023/05/24 10:15:32;;;;;;;11.55;3.10;;;15.50;99.90;;;;;;4919053;29;20047;-58
2023/05/24 10:18:00;;;;;;;11.57;3.33;;;16.20;99.90;;;;;;4935242;29;20177;-59
2023/05/24 10:20:27;;;;;;;9.40;2.88;;;15.80;99.90;;;;;;4916723;29;20062;-58
2023/05/24 10:23:02;;;;;;;12.07;3.85;;;15.60;99.90;;;;;;4935114;28;20212;-59
2023/05/24 10:25:31;;;;;;;12.82;3.42;;;15.40;99.90;;;;;;4940112;29;20066;-58
2023/05/24 10:28:00;;;;;;;12.27;2.75;;;;;;;;;;4939432;29;20431;-60
2023/05/24 10:30:45;;;;;;;13.20;3.88;;;;;;;;;;4922016;29;20050;-58
2023/05/24 10:33:13;;;;;;;9.57;3.10;;;15.80;99.90;;;;;;4938086;28;20573;-58
2023/05/24 10:35:39;;;;;;;10.77;3.13;;;15.50;99.90;;;;;;4939607;29;20106;-59
2023/05/24 10:38:08;;;;;;;11.70;2.70;;;15.80;99.90;;;;;;4922088;29;20094;-59
2023/05/24 10:40:34;;;;;;;10.05;3.22;;;;;;;;;;4921947;29;20110;-58
2023/05/24 10:43:05;;;;;;;13.65;3.45;;;15.80;99.90;;;;;;4921026;29;20400;-60
2023/05/24 10:45:34;;;;;;;8.77;2.47;;;15.80;99.90;;;;;;4922174;29;20086;-60
2023/05/24 10:48:20;;;;;;;10.30;3.00;;;;;;;;;;4939838;29;20039;-59
2023/05/24 10:50:46;;;;;;;8.68;3.33;;;16.10;98.80;;;;;;4909019;29;20062;-59
2023/05/24 10:53:16;;;;;;;14.55;3.38;;;;;;;;;;4939884;28;20420;-59
2023/05/24 10:56:05;;;;;;;9.30;3.50;;;16.70;96.90;;;;;;4923213;29;20118;-59
2023/05/24 10:58:45;;;;;;;10.05;2.92;;;;;;;;;;4922037;29;20035;-56
2023/05/24 11:01:25;;;;;;;9.02;3.08;;;;;;;;;;4938410;29;20051;-58
2023/05/24 11:03:51;;;;;;;10.50;3.05;;;16.40;91.90;;;;;;4938085;29;20057;-58
2023/05/24 11:06:17;;;;;;;9.43;2.97;;;17.10;89.80;;;;;;4938638;29;20421;-58
2023/05/24 11:08:43;;;;;;;9.75;2.53;;;16.70;62.80;;;;;;4921428;29;20046;-58
2023/05/24 11:11:11;;;;;;;8.23;2.45;;;16.50;50.70;;;;;;4920869;29;20116;-58
2023/05/24 11:13:40;;;;;;;9.93;3.00;;;16.70;45.80;;;;;;4939011;29;20039;-58
2023/05/24 11:16:06;;;;;;;10.25;2.97;;;;;;;;;;4938587;29;20193;-58
2023/05/24 11:18:37;;;;;;;7.65;2.63;;;17.50;20.70;;;;;;4938770;29;20358;-57
2023/05/24 11:21:04;;;;;;;8.23;2.55;;;17.40;17.50;;;;;;4920216;29;20078;-58
2023/05/24 11:23:31;;;;;;;7.43;2.35;;;17.70;13.20;;;;;;4905977;29;20505;-59
2023/05/24 11:25:57;;;;;;;7.90;2.78;;;17.40;8.30;;;;;;4921232;29;20781;-59
2023/05/24 11:28:23;;;;;;;12.07;3.13;;;17.30;1.00;;;;;;4938763;29;20043;-57
2023/05/24 11:30:50;;;;;;;8.85;2.72;;;;;;;;;;4920998;29;20162;-59
2023/05/24 11:33:17;;;;;;;8.80;2.58;;;17.50;1.00;;;;;;4920898;29;20054;-57
2023/05/24 11:35:43;;;;;;;8.55;2.72;;;17.60;1.00;;;;;;4937771;28;20682;-58
2023/05/24 11:38:13;;;;;;;10.05;3.60;;;17.60;1.00;;;;;;4937569;29;20174;-58
2023/05/24 11:40:44;;;;;;;7.85;2.88;;;18.00;1.00;;;;;;4937418;29;20374;-57
2023/05/24 11:43:14;;;;;;;8.02;2.85;;;;;;;;;;4938008;29;20043;-60
2023/05/24 11:45:42;;;;;;;9.13;2.95;;;17.60;1.00;;;;;;4938829;29;20051;-60
2023/05/24 11:48:09;;;;;;;10.93;3.13;;;18.10;1.00;;;;;;4920311;29;20118;-60
2023/05/24 11:50:42;;;;;;;7.40;2.53;;;18.40;1.00;;;;;;4937575;29;20086;-60
2023/05/24 11:53:12;;;;;;;9.82;2.70;;;18.30;1.00;;;;;;4920265;29;20126;-60
2023/05/24 11:55:42;;;;;;;11.30;2.92;;;19.30;1.00;;;;;;4937818;29;20107;-58
2023/05/24 11:58:17;;;;;;;9.38;3.22;;;18.30;1.00;;;;;;4920488;29;20043;-58
2023/05/24 12:00:43;;;;;;;9.90;2.83;;;19.50;1.00;;;;;;4918927;29;20051;-57
2023/05/24 12:03:09;;;;;;;11.15;2.72;;;19.00;1.00;;;;;;4937692;28;20046;-59
2023/05/24 12:05:36;;;;;;;7.03;2.47;;;19.30;1.00;;;;;;4921202;29;20039;-59
2023/05/24 12:08:14;;;;;;;9.23;2.63;;;;;;;;;;4920735;29;20158;-59
2023/05/24 12:10:41;;;;;;;8.48;2.80;;;19.00;1.00;;;;;;4936887;29;20609;-58
2023/05/24 12:13:21;;;;;;;8.05;2.17;;;19.30;1.00;;;;;;4937478;28;20089;-58
2023/05/24 12:15:54;;;;;;;8.02;2.60;;;19.30;1.00;;;;;;4904903;29;20292;-58
2023/05/24 12:18:27;;;;;;;7.73;2.73;;;19.60;1.00;;;;;;4937308;29;20055;-59
2023/05/24 12:20:53;;;;;;;7.90;2.53;;;19.90;1.00;;;;;;4919626;29;20126;-58
2023/05/24 12:23:22;;;;;;;12.02;3.20;;;19.20;1.00;;;;;;4937028;28;20797;-58
2023/05/24 12:25:49;;;;;;;8.45;3.50;;;;;;;;;;4937410;29;20043;-58
2023/05/24 12:28:15;;;;;;;8.60;2.45;;;19.90;1.00;;;;;;4937270;29;20087;-59
2023/05/24 12:30:43;;;;;;;10.75;4.38;;;20.70;1.00;;;;;;4919324;29;20385;-59
2023/05/24 12:33:12;;;;;;;9.25;2.75;;;21.10;1.00;;;;;;4935125;28;20074;-61
2023/05/24 12:35:41;;;;;;;8.52;3.00;;;20.90;1.00;;;;;;4936888;29;20039;-58
2023/05/24 12:38:09;;;;;;;10.02;3.03;;;20.50;1.00;;;;;;4935498;29;20566;-58
2023/05/24 12:40:35;;;;;;;8.95;2.85;;;21.90;1.00;;;;;;4935945;29;20064;-59
2023/05/24 12:43:03;;;;;;;9.30;2.85;;;22.10;1.00;;;;;;4918073;29;20121;-57
2023/05/24 12:45:28;;;;;;;10.45;2.72;;;22.00;1.00;;;;;;4935841;29;20575;-57
2023/05/24 12:47:56;;;;;;;7.65;3.08;;;22.90;1.00;;;;;;4935316;28;20412;-60
2023/05/24 12:50:23;;;;;;;8.82;2.72;;;24.00;1.00;;;;;;4934480;29;20158;-59
2023/05/24 12:52:53;;;;;;;8.63;3.38;;;25.30;1.00;;;;;;4935113;28;20505;-59
2023/05/24 12:55:24;;;;;;;8.90;2.70;;;26.40;1.00;;;;;;4935495;29;20043;-60
2023/05/24 12:57:53;;;;;;;8.32;2.70;;;26.80;99.90;;;;;;4918620;29;20540;-59
2023/05/24 13:00:21;;;;;;;13.07;3.17;;;26.70;99.90;;;;;;4934911;29;20047;-59
2023/05/24 13:02:47;;;;;;;9.52;2.83;;;27.50;99.90;;;;;;4935404;28;20241;-59
2023/05/24 13:05:13;;;;;;;10.80;3.00;;;27.20;99.90;;;;;;4917884;29;20058;-58
2023/05/24 13:07:41;;;;;;;8.73;2.80;;;27.70;99.90;;;;;;4918268;29;20051;-58
2023/05/24 13:10:07;;;;;;;9.52;2.97;;;27.00;99.90;;;;;;4934317;29;20751;-59
2023/05/24 13:12:33;;;;;;;8.57;3.20;;;28.00;99.90;;;;;;4918052;29;20082;-59
2023/05/24 13:14:59;;;;;;;9.20;3.10;;;29.40;99.90;;;;;;4918288;29;20043;-60
2023/05/24 13:17:24;;;;;;;10.13;3.90;;;31.40;99.90;;;;;;4932305;29;20082;-59
2023/05/24 13:19:50;;;;;;;14.20;4.25;;;30.20;99.90;;;;;;4933896;29;20089;-58
2023/05/24 13:22:16;;;;;;;8.68;3.28;;;30.10;99.90;;;;;;4934843;28;20039;-59
2023/05/24 13:24:41;;;;;;;12.07;3.97;;;29.30;99.90;;;;;;4917878;29;20102;-59
2023/05/24 13:27:07;;;;;;;10.05;3.65;;;30.50;99.90;;;;;;4935532;29;20722;-59
2023/05/24 13:29:33;;;;;;;14.07;4.00;;;31.20;99.90;;;;;;4933902;29;20421;-59
2023/05/24 13:31:58;;;;;;;9.93;2.95;;;31.50;99.90;;;;;;4935270;28;20045;-60
2023/05/24 13:34:25;;;;;;;9.60;3.00;;;31.60;99.90;;;;;;4934643;29;20378;-59
2023/05/24 13:36:52;;;;;;;7.60;2.80;;;31.30;99.90;;;;;;4917690;29;20050;-59
2023/05/24 13:39:19;;;;;;;10.05;2.85;;;31.80;99.90;;;;;;4934002;29;20082;-59
2023/05/24 13:41:45;;;;;;;9.80;3.40;;;32.90;99.90;;;;;;4934429;29;20043;-60
2023/05/24 13:44:12;;;;;;;7.30;2.97;;;32.70;99.90;;;;;;4934094;29;20043;-59
2023/05/24 13:46:39;;;;;;;8.80;3.03;;;33.70;99.90;;;;;;4935077;29;20043;-59
2023/05/24 13:49:06;;;;;;;8.98;3.03;;;34.00;99.90;;;;;;4934471;29;20097;-59
2023/05/24 13:51:32;;;;;;;8.40;3.00;;;33.50;99.90;;;;;;4934388;29;20114;-58
2023/05/24 13:53:58;;;;;;;6.85;2.30;;;33.50;99.90;;;;;;4934304;29;20039;-60
2023/05/24 13:56:26;;;;;;;7.32;2.60;;;32.40;99.90;;;;;;4934559;29;20054;-59
2023/05/24 13:58:52;;;;;;;10.25;2.80;;;31.70;99.90;;;;;;4934623;28;20039;-59
2023/05/24 14:01:19;;;;;;;9.48;2.80;;;30.90;99.90;;;;;;4934193;29;20455;-59
2023/05/24 14:03:45;;;;;;;7.72;2.97;;;30.80;99.90;;;;;;4934282;28;20043;-59
2023/05/24 14:06:11;;;;;;;10.35;3.13;;;30.70;99.90;;;;;;4934871;29;20223;-60
2023/05/24 14:08:37;;;;;;;10.52;2.88;;;30.40;99.90;;;;;;4933921;29;20471;-58
2023/05/24 14:11:03;;;;;;;7.55;2.75;;;30.00;99.90;;;;;;4916412;29;20060;-59
2023/05/24 14:13:29;;;;;;;9.43;3.50;;;31.80;99.90;;;;;;4917414;29;20058;-59
2023/05/24 14:15:54;;;;;;;10.13;2.92;;;31.80;99.90;;;;;;4934390;29;20074;-59
2023/05/24 14:18:20;;;;;;;11.80;3.55;;;31.90;99.90;;;;;;4934452;29;20126;-60
2023/05/24 14:20:46;;;;;;;13.80;3.42;;;31.60;99.90;;;;;;4933257;29;20417;-59
2023/05/24 14:23:11;;;;;;;8.15;3.17;;;30.70;99.90;;;;;;4917030;29;20213;-60
2023/05/24 14:25:37;;;;;;;8.88;3.55;;;29.90;99.90;;;;;;4935010;29;20039;-58
2023/05/24 14:28:03;;;;;;;10.10;3.60;;;28.90;99.90;;;;;;4934886;29;20043;-60
2023/05/24 14:30:30;;;;;;;10.18;3.85;;;29.10;99.90;;;;;;4927163;29;20490;-59
2023/05/24 14:32:57;;;;;;;11.77;2.83;;;27.80;99.90;;;;;;4934157;28;20463;-60
2023/05/24 14:35:23;;;;;;;9.40;2.78;;;27.00;99.90;;;;;;4934058;29;20635;-58
2023/05/24 14:37:48;;;;;;;11.02;3.40;;;26.60;99.90;;;;;;4916721;29;20043;-59
2023/05/24 14:40:14;;;;;;;12.52;3.40;;;26.50;99.90;;;;;;4933829;29;20446;-58
2023/05/24 14:42:40;;;;;;;9.90;3.28;;;25.90;99.90;;;;;;4934761;29;20039;-59
2023/05/24 14:45:06;;;;;;;10.38;3.20;;;27.30;99.90;;;;;;4934693;29;20451;-59
2023/05/24 14:47:32;;;;;;;8.32;2.80;;;27.80;99.90;;;;;;4934454;29;20047;-58
2023/05/24 14:49:58;;;;;;;10.38;3.28;;;30.00;99.90;;;;;;4933217;29;20047;-60
2023/05/24 14:52:23;;;;;;;8.57;3.05;;;30.60;99.90;;;;;;4934035;28;20043;-58
2023/05/24 14:54:49;;;;;;;9.13;3.00;;;31.90;99.90;;;;;;4934639;29;20040;-59
2023/05/24 14:57:15;;;;;;;8.50;3.05;;;32.90;99.90;;;;;;4934473;29;20039;-58
2023/05/24 14:59:40;;;;;;;7.97;3.05;;;34.60;99.90;;;;;;4933578;29;20046;-59
2023/05/24 15:02:06;;;;;;;8.98;3.42;;;35.90;99.90;;;;;;4934725;29;20038;-59
2023/05/24 15:04:32;;;;;;;9.23;2.58;;;36.00;99.90;;;;;;4935473;29;20101;-58
2023/05/24 15:06:57;;;;;;;8.18;2.55;;;37.30;99.90;;;;;;4935080;29;20114;-60
2023/05/24 15:09:23;;;;;;;9.93;3.42;;;38.00;99.90;;;;;;4933031;28;20356;-59
2023/05/24 15:11:49;;;;;;;11.38;3.70;;;38.00;99.90;;;;;;4936314;29;20359;-59
2023/05/24 15:14:14;;;;;;;8.93;2.95;;;36.00;99.90;;;;;;4920183;29;20584;-60
2023/05/24 15:16:40;;;;;;;8.77;2.90;;;35.00;99.90;;;;;;4937337;29;20074;-60
2023/05/24 15:19:06;;;;;;;8.40;3.20;;;35.90;99.90;;;;;;4937160;29;20147;-59
2023/05/24 15:21:31;;;;;;;7.65;2.58;;;37.20;99.90;;;;;;4912480;29;20043;-59
2023/05/24 15:23:57;;;;;;;8.02;2.70;;;37.70;99.90;;;;;;4936811;28;20081;-58
2023/05/24 15:26:23;;;;;;;7.72;2.90;;;37.70;99.90;;;;;;4937402;29;20533;-60
2023/05/24 15:28:48;;;;;;;7.43;3.00;;;38.20;99.90;;;;;;4919547;29;20470;-59
2023/05/24 15:31:14;;;;;;;7.95;3.00;;;38.60;99.90;;;;;;4935234;29;20050;-60
2023/05/24 15:33:39;;;;;;;8.50;2.70;;;37.80;99.90;;;;;;4920406;29;20053;-59
2023/05/24 15:36:05;;;;;;;8.20;2.67;;;36.30;99.90;;;;;;4937690;29;20078;-60
2023/05/24 15:38:33;;;;;;;7.75;2.50;;;33.90;99.90;;;;;;4920081;29;20061;-60
2023/05/24 15:40:58;;;;;;;8.05;2.38;;;32.70;99.90;;;;;;4903262;29;20267;-59
2023/05/24 15:43:24;;;;;;;7.78;2.80;;;32.60;99.90;;;;;;4936293;29;20054;-60
2023/05/24 15:45:50;;;;;;;8.80;2.60;;;32.70;99.90;;;;;;4936544;29;20643;-60
2023/05/24 15:48:15;;;;;;;8.85;3.58;;;32.40;99.90;;;;;;4919725;29;20055;-59
2023/05/24 15:50:41;;;;;;;9.00;2.45;;;31.50;99.90;;;;;;4918745;29;20528;-58
2023/05/24 15:53:07;;;;;;;6.82;2.30;;;32.40;99.90;;;;;;4936259;28;20050;-59
2023/05/24 15:55:35;;;;;;;9.27;2.50;;;33.40;99.90;;;;;;4903248;29;20043;-60
2023/05/24 15:58:01;;;;;;;7.20;2.88;;;35.20;99.90;;;;;;4918519;29;20110;-58
2023/05/24 16:00:26;;;;;;;6.53;2.25;;;33.60;99.90;;;;;;4918656;29;20163;-60
2023/05/24 16:02:52;;;;;;;8.23;2.42;;;34.20;99.90;;;;;;4936387;28;20035;-60
2023/05/24 16:05:19;;;;;;;7.82;2.65;;;33.10;99.90;;;;;;4936178;29;20068;-60
2023/05/24 16:07:45;;;;;;;6.90;2.70;;;31.50;99.90;;;;;;4936473;29;20109;-58
2023/05/24 16:10:10;;;;;;;7.30;2.38;;;30.60;99.90;;;;;;4918254;29;20051;-60
2023/05/24 16:12:36;;;;;;;8.82;2.72;;;30.90;99.90;;;;;;4935798;28;20043;-59
2023/05/24 16:15:02;;;;;;;11.40;3.47;;;30.80;99.90;;;;;;4914093;29;20043;-60
2023/05/24 16:17:28;;;;;;;9.40;2.15;;;30.60;99.90;;;;;;4925493;29;20110;-60
2023/05/24 16:19:53;;;;;;;8.68;2.70;;;29.70;99.90;;;;;;4914089;29;20047;-60
2023/05/24 16:22:19;;;;;;;7.50;2.70;;;29.20;99.90;;;;;;4929131;28;20055;-60
2023/05/24 16:24:45;;;;;;;9.57;2.60;;;28.20;99.90;;;;;;4914295;29;20050;-60
2023/05/24 16:27:10;;;;;;;7.22;3.60;;;27.10;99.90;;;;;;4930086;28;20414;-60
2023/05/24 16:29:37;;;;;;;8.30;3.28;;;27.30;99.90;;;;;;4932762;28;20205;-58
2023/05/24 16:32:02;;;;;;;10.43;2.50;;;26.90;99.90;;;;;;4930448;28;20437;-60
2023/05/24 16:34:28;;;;;;;9.27;2.85;;;25.70;99.90;;;;;;4910657;29;20049;-60
2023/05/24 16:36:56;;;;;;;6.95;2.45;;;25.70;99.90;;;;;;4929790;28;20411;-60
2023/05/24 16:39:22;;;;;;;11.32;3.10;;;24.00;99.90;;;;;;4934477;28;20110;-62
2023/05/24 16:41:47;;;;;;;7.25;2.80;;;24.40;99.90;;;;;;4934657;28;20047;-61
2023/05/24 16:44:16;;;;;;;7.38;2.58;;;23.60;99.90;;;;;;4903987;29;20409;-60
2023/05/24 16:46:45;;;;;;;7.13;2.50;;;23.10;99.90;;;;;;4935766;29;20508;-61
2023/05/24 16:51:43;;;;;;;8.68;2.45;;;22.30;99.90;;;;;;4872710;28;20850;-61
2023/05/24 16:54:10;;;;;;;8.57;3.00;;;20.10;99.90;;;;;;4839220;29;20502;-60
2023/05/24 16:56:43;;;;;;;9.68;2.72;;;22.20;99.90;;;;;;4833102;29;20515;-60
2023/05/24 16:59:13;;;;;;;7.65;2.45;;;22.00;99.90;;;;;;4839042;29;20314;-60
2023/05/24 17:04:11;;;;;;;11.13;2.92;;;20.80;99.90;;;;;;4893584;28;20400;-60
2023/05/24 17:09:05;;;;;;;9.90;3.08;;;20.40;99.90;;;;;;4966521;28;20050;-61
2023/05/24 17:11:31;;;;;;;8.00;2.92;;;20.40;99.90;;;;;;4971833;28;20050;-62
2023/05/24 17:13:56;;;;;;;8.30;2.65;;;20.00;99.90;;;;;;4953076;28;20034;-61
2023/05/24 17:16:22;;;;;;;7.78;2.42;;;19.80;99.90;;;;;;4941968;28;20039;-62
2023/05/24 17:18:48;;;;;;;8.20;3.10;;;20.00;99.90;;;;;;4931089;28;20572;-62
2023/05/24 17:21:14;;;;;;;11.45;3.65;;;19.30;99.90;;;;;;4943694;28;20358;-61
2023/05/24 17:23:40;;;;;;;9.20;2.63;;;19.00;99.90;;;;;;4940013;28;20070;-61
2023/05/24 17:26:06;;;;;;;10.63;2.95;;;18.90;99.90;;;;;;4931187;28;20085;-62
2023/05/24 17:28:34;;;;;;;8.57;2.70;;;18.80;99.90;;;;;;4941605;28;20089;-61
2023/05/24 17:31:00;;;;;;;11.90;3.42;;;19.00;99.90;;;;;;4945825;28;20671;-61
2023/05/24 17:33:27;;;;;;;10.48;3.78;;;18.20;99.90;;;;;;4941006;28;20110;-60
2023/05/24 17:35:56;;;;;;;9.35;2.92;;;19.40;99.90;;;;;;4930375;28;20057;-60
2023/05/24 17:38:23;;;;;;;12.45;2.92;;;18.40;99.90;;;;;;4943239;28;20043;-58
2023/05/24 17:40:54;;;;;;;9.60;3.42;;;18.70;99.90;;;;;;4947200;28;20568;-60
2023/05/24 17:43:27;;;;;;;10.27;3.00;;;18.30;99.90;;;;;;4947226;28;20054;-60
2023/05/24 17:46:01;;;;;;;8.35;3.05;;;18.90;99.90;;;;;;4954407;28;20097;-60
2023/05/24 17:48:36;;;;;;;9.23;2.67;;;18.90;99.90;;;;;;4937989;28;20089;-60
2023/05/24 17:51:06;;;;;;;9.02;2.58;;;18.90;99.90;;;;;;4954000;28;20496;-60
2023/05/24 17:53:34;;;;;;;8.93;3.00;;;18.80;99.90;;;;;;4953996;28;20051;-61
2023/05/24 17:56:03;;;;;;;6.82;2.60;;;18.40;99.90;;;;;;4955065;28;20038;-60
2023/05/24 17:58:34;;;;;;;7.18;2.25;;;18.40;99.90;;;;;;4954468;28;20054;-60
2023/05/24 18:01:03;;;;;;;8.02;2.30;;;18.50;99.90;;;;;;4954635;28;20420;-60
2023/05/24 18:03:32;;;;;;;9.00;2.25;;;19.00;99.90;;;;;;4937523;28;20477;-61
2023/05/24 18:05:58;;;;;;;8.73;2.63;;;18.50;99.90;;;;;;4949025;28;20038;-60
2023/05/24 18:08:24;;;;;;;7.15;2.60;;;18.20;99.90;;;;;;4954013;28;20582;-60
2023/05/24 18:10:50;;;;;;;8.43;2.70;;;18.90;99.90;;;;;;4953842;28;20043;-59
2023/05/24 18:13:16;;;;;;;8.35;2.58;;;18.00;99.90;;;;;;4945165;28;20043;-60
2023/05/24 18:15:42;;;;;;;7.07;2.03;;;17.70;99.90;;;;;;4943766;28;20051;-60
2023/05/24 18:18:08;;;;;;;6.47;2.20;;;17.90;99.90;;;;;;4932720;28;20050;-60
2023/05/24 18:20:34;;;;;;;8.82;2.85;;;15.80;99.90;;;;;;4956333;28;20459;-60
2023/05/24 18:22:59;;;;;;;9.13;2.63;;;18.00;99.90;;;;;;4939540;28;20282;-60
2023/05/24 18:25:25;;;;;;;7.00;2.45;;;18.60;99.90;;;;;;4936086;28;20221;-60
2023/05/24 18:27:51;;;;;;;7.63;2.35;;;18.10;99.90;;;;;;4950183;28;20043;-60
2023/05/24 18:30:17;;;;;;;8.05;2.80;;;17.70;99.90;;;;;;4940395;28;20051;-61
2023/05/24 18:32:42;;;;;;;6.47;2.72;;;17.70;99.90;;;;;;4957228;28;20034;-60
2023/05/24 18:35:09;;;;;;;8.23;2.38;;;17.60;99.90;;;;;;4943287;28;20437;-60
2023/05/24 18:37:35;;;;;;;8.68;2.60;;;17.50;99.90;;;;;;4949925;28;20121;-60
2023/05/24 18:46:32;;;;;;;6.90;2.42;;;17.30;99.90;;;;;;5079058;23;20460;-60
2023/05/24 18:51:56;;;;;;;7.55;2.33;;;;;;;;;;4876243;28;20362;-59
2023/05/24 18:56:51;;;;;;;7.53;2.83;;;16.90;99.90;;;;;;5002167;23;20047;-60
2023/05/24 19:02:06;;;;;;;8.57;2.60;;;16.50;1.00;;;;;;4035103;23;20265;-61
2023/05/24 19:10:16;;;;;;;12.80;3.17;;;16.20;1.00;;;;;;5023273;23;20428;-59
2023/05/24 19:15:14;;;;;;;12.45;3.55;;;;;;;;;;5220404;23;20043;-61
2023/05/24 19:17:40;;;;;;;8.93;3.40;;;;;;;;;;4961577;23;20179;-59
2023/05/24 19:20:10;;;;;;;11.95;3.38;;;15.60;1.00;;;;;;4942755;23;20363;-59
2023/05/24 19:22:37;;;;;;;10.52;3.95;;;;;;;;;;4953128;23;20638;-59
2023/05/24 19:30:59;;;;;;;7.90;3.40;;;;;;;;;;5041763;23;20546;-58
2023/05/24 19:33:26;;;;;;;12.10;4.00;;;;;;;;;;5192321;23;20438;-59
2023/05/24 19:38:30;;;;;;;9.23;3.67;;;;;;;;;;5060378;23;20083;-59
2023/05/24 19:40:57;;;;;;;8.35;3.22;;;;;;;;;;4871904;28;20085;-64
2023/05/24 19:43:24;;;;;;;10.13;3.55;;;;;;;;;;4868583;28;20450;-61
2023/05/24 19:45:52;;;;;;;10.02;3.67;;;;;;;;;;4880032;28;20744;-62
2023/05/24 19:48:20;;;;;;;10.05;3.42;;;;;;;;;;4865064;28;20550;-58
2023/05/24 19:50:52;;;;;;;12.48;3.83;;;;;;;;;;4895487;28;20583;-60